createdAt,value
2018-03-19T00:01:14.072Z,43.90
2018-03-19T00:03:41.497Z,44.00
2018-03-19T00:06:08.934Z,44.00
2018-03-19T00:08:37.147Z,43.70
2018-03-19T00:11:04.574Z,43.70
2018-03-19T00:13:32.767Z,43.70
2018-03-19T00:16:00.245Z,43.70
2018-03-19T00:18:27.700Z,43.70
2018-03-19T00:20:55.129Z,43.70
2018-03-19T00:23:22.616Z,43.80
2018-03-19T00:25:50.045Z,43.80
2018-03-19T00:28:17.626Z,43.70
2018-03-19T00:30:45.089Z,43.70
2018-03-19T00:33:12.643Z,43.60
2018-03-19T00:35:40.108Z,43.60
2018-03-19T00:38:07.564Z,43.50
2018-03-19T00:40:35.014Z,43.50
2018-03-19T00:43:02.430Z,43.50
2018-03-19T00:45:30.641Z,43.50
2018-03-19T00:47:58.068Z,43.50
2018-03-19T00:50:26.284Z,43.40
2018-03-19T00:52:53.740Z,43.40
2018-03-19T00:55:21.196Z,43.30
2018-03-19T00:57:48.661Z,43.30
2018-03-19T01:00:16.098Z,43.30
2018-03-19T01:02:43.517Z,43.20
2018-03-19T01:05:11.026Z,43.20
2018-03-19T01:07:38.485Z,43.20
2018-03-19T01:10:05.945Z,43.30
2018-03-19T01:12:33.372Z,43.30
2018-03-19T01:15:00.865Z,43.20
2018-03-19T01:17:28.297Z,43.20
2018-03-19T01:19:55.781Z,43.40
2018-03-19T01:22:23.224Z,43.40
2018-03-19T01:24:50.662Z,43.40
2018-03-19T01:27:18.868Z,43.40
2018-03-19T01:29:46.310Z,43.40
2018-03-19T01:32:13.746Z,43.40
2018-03-19T01:34:41.232Z,43.40
2018-03-19T01:37:08.688Z,43.40
2018-03-19T01:39:36.119Z,43.30
2018-03-19T01:42:03.605Z,43.20
2018-03-19T01:44:31.040Z,43.30
2018-03-19T01:46:58.469Z,43.20
2018-03-19T01:49:26.700Z,43.30
2018-03-19T01:51:54.150Z,43.30
2018-03-19T01:54:21.560Z,43.30
2018-03-19T01:56:49.770Z,43.50
2018-03-19T01:59:17.249Z,43.50
2018-03-19T02:01:44.660Z,43.40
2018-03-19T02:04:12.160Z,43.50
2018-03-19T02:06:39.604Z,44.20
2018-03-19T02:09:07.035Z,43.60
2018-03-19T02:11:35.220Z,43.80
2018-03-19T02:14:02.793Z,43.70
2018-03-19T02:16:30.269Z,43.80
2018-03-19T02:18:57.688Z,43.70
2018-03-19T02:21:25.267Z,43.70
2018-03-19T02:23:52.724Z,43.70
2018-03-19T02:26:20.128Z,43.80
2018-03-19T02:28:47.650Z,43.80
2018-03-19T02:31:15.102Z,43.90
2018-03-19T02:33:42.655Z,44.00
2018-03-19T02:36:10.091Z,44.10
2018-03-19T02:38:37.576Z,44.00
2018-03-19T02:41:05.006Z,44.00
2018-03-19T02:43:32.445Z,44.00
2018-03-19T02:46:00.647Z,44.20
2018-03-19T02:48:28.073Z,44.20
2018-03-19T02:50:56.304Z,44.30
2018-03-19T02:53:23.760Z,44.30
2018-03-19T02:55:51.182Z,44.30
2018-03-19T02:58:18.621Z,44.40
2018-03-19T03:00:46.815Z,44.70
2018-03-19T03:03:14.312Z,44.70
2018-03-19T03:05:41.764Z,44.70
2018-03-19T03:08:09.217Z,44.80
2018-03-19T03:10:36.662Z,44.70
2018-03-19T03:13:04.108Z,44.80
2018-03-19T03:15:31.532Z,44.80
2018-03-19T03:17:59.736Z,45.00
2018-03-19T03:20:27.312Z,44.90
2018-03-19T03:22:54.784Z,45.00
2018-03-19T03:25:22.263Z,44.90
2018-03-19T03:27:49.792Z,45.00
2018-03-19T03:30:17.257Z,45.10
2018-03-19T03:32:44.683Z,45.20
2018-03-19T03:35:12.140Z,45.10
2018-03-19T03:37:39.630Z,45.10
2018-03-19T03:40:07.081Z,45.70
2018-03-19T03:42:34.544Z,45.10
2018-03-19T03:45:02.028Z,45.10
2018-03-19T03:47:29.444Z,45.10
2018-03-19T03:49:56.902Z,45.10
2018-03-19T03:52:24.357Z,45.70
2018-03-19T03:54:51.764Z,45.20
2018-03-19T03:57:19.200Z,45.20
2018-03-19T03:59:46.740Z,45.30
2018-03-19T04:02:14.196Z,45.30
2018-03-19T04:04:41.645Z,45.40
2018-03-19T04:07:09.072Z,45.50
2018-03-19T04:09:37.264Z,45.60
2018-03-19T04:12:04.700Z,45.60
2018-03-19T04:14:32.917Z,45.60
2018-03-19T04:17:00.364Z,45.60
2018-03-19T04:19:27.784Z,46.30
2018-03-19T04:21:55.980Z,45.90
2018-03-19T04:24:23.456Z,45.90
2018-03-19T04:26:51.013Z,46.80
2018-03-19T04:29:18.432Z,46.50
2018-03-19T04:31:46.654Z,46.90
2018-03-19T04:34:14.109Z,46.80
2018-03-19T04:36:41.560Z,47.10
2018-03-19T04:39:09.020Z,47.30
2018-03-19T04:41:36.459Z,47.30
2018-03-19T04:44:03.890Z,47.50
2018-03-19T04:46:32.090Z,47.70
2018-03-19T04:48:59.530Z,47.60
2018-03-19T04:51:27.839Z,47.90
2018-03-19T04:53:55.301Z,47.90
2018-03-19T04:56:22.756Z,48.00
2018-03-19T04:58:50.213Z,48.00
2018-03-19T05:01:17.645Z,48.00
2018-03-19T05:03:45.084Z,48.10
2018-03-19T05:06:13.285Z,48.20
2018-03-19T05:08:40.718Z,48.10
2018-03-19T05:11:08.920Z,48.60
2018-03-19T05:13:36.345Z,48.10
2018-03-19T05:16:04.567Z,48.40
2018-03-19T05:18:32.002Z,48.40
2018-03-19T05:20:59.530Z,48.40
2018-03-19T05:23:27.012Z,48.40
2018-03-19T05:25:55.421Z,48.50
2018-03-19T05:28:22.884Z,48.60
2018-03-19T05:30:50.378Z,48.70
2018-03-19T05:33:17.997Z,48.70
2018-03-19T05:35:45.478Z,49.30
2018-03-19T05:38:12.910Z,48.80
2018-03-19T05:40:40.464Z,48.90
2018-03-19T05:43:07.946Z,49.00
2018-03-19T05:45:35.401Z,49.10
2018-03-19T05:48:02.863Z,49.10
2018-03-19T05:50:30.476Z,49.30
2018-03-19T05:52:58.798Z,49.50
2018-03-19T05:55:26.389Z,49.50
2018-03-19T05:57:54.687Z,49.60
2018-03-19T06:00:22.168Z,49.60
2018-03-19T06:02:49.614Z,49.60
2018-03-19T06:05:17.088Z,49.60
2018-03-19T06:07:44.631Z,49.70
2018-03-19T06:10:12.068Z,49.70
2018-03-19T06:12:40.275Z,49.70
2018-03-19T06:15:07.756Z,49.70
2018-03-19T06:17:35.296Z,49.80
2018-03-19T06:20:02.739Z,49.40
2018-03-19T06:22:30.208Z,49.80
2018-03-19T06:24:57.659Z,49.80
2018-03-19T06:27:25.223Z,49.70
2018-03-19T06:29:52.650Z,49.70
2018-03-19T06:32:21.060Z,49.60
2018-03-19T06:34:48.541Z,49.80
2018-03-19T06:37:16.075Z,49.50
2018-03-19T06:39:43.544Z,49.40
2018-03-19T06:42:11.073Z,49.30
2018-03-19T06:44:38.437Z,49.30
2018-03-19T06:47:05.910Z,49.80
2018-03-19T06:49:33.371Z,49.10
2018-03-19T06:52:00.828Z,49.10
2018-03-19T06:54:28.274Z,48.90
2018-03-19T06:56:55.704Z,48.90
2018-03-19T06:59:23.938Z,48.60
2018-03-19T07:01:51.377Z,48.60
2018-03-19T07:04:18.924Z,48.50
2018-03-19T07:06:46.379Z,48.40
2018-03-19T07:09:13.849Z,48.20
2018-03-19T07:11:41.281Z,48.20
2018-03-19T07:14:08.725Z,48.00
2018-03-19T07:16:36.941Z,47.80
2018-03-19T07:19:04.394Z,47.80
2018-03-19T07:21:31.845Z,47.50
2018-03-19T07:23:59.296Z,47.20
2018-03-19T07:26:26.720Z,47.80
2018-03-19T07:28:54.978Z,46.80
2018-03-19T07:31:22.502Z,46.70
2018-03-19T07:33:49.931Z,46.40
2018-03-19T07:36:17.356Z,46.20
2018-03-19T07:38:44.805Z,46.10
2018-03-19T07:41:12.270Z,45.80
2018-03-19T07:43:39.894Z,45.70
2018-03-19T07:46:07.345Z,45.40
2018-03-19T07:48:34.831Z,45.20
2018-03-19T07:51:02.244Z,45.10
2018-03-19T07:53:29.720Z,44.90
2018-03-19T07:55:57.160Z,44.50
2018-03-19T07:58:24.646Z,44.00
2018-03-19T08:00:52.282Z,43.80
2018-03-19T08:03:19.798Z,43.60
2018-03-19T08:05:48.103Z,42.90
2018-03-19T08:08:15.680Z,43.40
2018-03-19T08:10:43.150Z,43.40
2018-03-19T08:13:10.569Z,43.20
2018-03-19T08:15:38.020Z,43.10
2018-03-19T08:18:06.241Z,42.70
2018-03-19T08:20:33.699Z,42.70
2018-03-19T08:23:01.138Z,42.40
2018-03-19T08:25:28.556Z,42.20
2018-03-19T08:27:56.784Z,42.00
2018-03-19T08:30:24.230Z,42.00
2018-03-19T08:32:51.648Z,41.80
2018-03-19T08:35:19.876Z,41.90
2018-03-19T08:37:47.437Z,41.90
2018-03-19T08:40:14.978Z,41.60
2018-03-19T08:42:42.380Z,41.50
2018-03-19T08:45:09.826Z,41.70
2018-03-19T08:47:37.267Z,41.60
2018-03-19T08:50:04.709Z,41.50
2018-03-19T08:52:32.161Z,41.50
2018-03-19T08:54:59.600Z,41.30
2018-03-19T08:57:27.081Z,41.30
2018-03-19T08:59:54.557Z,41.00
2018-03-19T09:02:21.997Z,40.40
2018-03-19T09:04:49.454Z,40.30
2018-03-19T09:07:16.943Z,40.20
2018-03-19T09:09:44.366Z,40.30
2018-03-19T09:12:11.785Z,40.30
2018-03-19T09:14:39.986Z,40.00
2018-03-19T09:17:07.412Z,39.90
2018-03-19T09:19:35.725Z,40.00
2018-03-19T09:22:03.187Z,40.00
2018-03-19T09:24:30.658Z,40.10
2018-03-19T09:26:58.100Z,40.00
2018-03-19T09:29:25.556Z,39.80
2018-03-19T09:31:52.965Z,39.80
2018-03-19T09:34:21.200Z,39.40
2018-03-19T09:36:48.640Z,39.20
2018-03-19T09:39:16.107Z,39.30
2018-03-19T09:41:43.536Z,39.20
2018-03-19T09:44:10.970Z,39.10
2018-03-19T09:46:39.198Z,38.70
2018-03-19T09:49:06.645Z,38.70
2018-03-19T09:51:34.125Z,38.80
2018-03-19T09:54:01.532Z,38.90
2018-03-19T09:56:29.714Z,38.30
2018-03-19T09:58:57.296Z,38.30
2018-03-19T10:01:24.762Z,38.50
2018-03-19T10:03:52.213Z,38.20
2018-03-19T10:06:19.672Z,37.90
2018-03-19T10:08:47.093Z,37.90
2018-03-19T10:11:15.281Z,37.80
2018-03-19T10:13:42.763Z,37.80
2018-03-19T10:16:10.220Z,37.80
2018-03-19T10:18:37.648Z,37.60
2018-03-19T10:21:05.081Z,37.40
2018-03-19T10:23:33.271Z,37.20
2018-03-19T10:26:01.460Z,37.20
2018-03-19T10:28:28.910Z,37.10
2018-03-19T10:30:57.104Z,37.20
2018-03-19T10:33:24.613Z,37.10
2018-03-19T10:35:52.125Z,36.80
2018-03-19T10:38:19.550Z,36.60
2018-03-19T10:40:47.760Z,36.50
2018-03-19T10:43:15.202Z,36.50
2018-03-19T10:45:42.625Z,36.30
2018-03-19T10:48:10.816Z,36.10
2018-03-19T10:50:39.125Z,35.70
2018-03-19T10:53:06.540Z,35.70
2018-03-19T10:55:34.733Z,36.20
2018-03-19T10:58:02.204Z,36.20
2018-03-19T11:00:29.615Z,35.90
2018-03-19T11:03:02.733Z,36.00
2018-03-19T11:05:30.937Z,36.10
2018-03-19T11:08:04.205Z,36.00
2018-03-19T11:10:31.676Z,35.20
2018-03-19T11:12:59.089Z,35.30
2018-03-19T11:15:27.296Z,35.20
2018-03-19T11:17:54.820Z,35.20
2018-03-19T11:20:22.242Z,34.90
2018-03-19T11:22:49.682Z,35.20
2018-03-19T11:25:17.135Z,35.00
2018-03-19T11:27:44.545Z,35.10
2018-03-19T11:30:11.985Z,34.90
2018-03-19T11:32:39.526Z,35.30
2018-03-19T11:35:06.948Z,35.20
2018-03-19T11:37:34.423Z,35.00
2018-03-19T11:40:01.937Z,35.10
2018-03-19T11:42:29.349Z,35.00
2018-03-19T11:44:56.786Z,35.00
2018-03-19T11:47:24.239Z,34.80
2018-03-19T11:49:52.401Z,34.80
2018-03-19T11:52:19.897Z,34.80
2018-03-19T11:54:47.338Z,34.90
2018-03-19T11:57:14.809Z,35.00
2018-03-19T11:59:42.258Z,34.80
2018-03-19T12:02:09.725Z,35.00
2018-03-19T12:04:37.174Z,34.80
2018-03-19T12:07:04.613Z,34.70
2018-03-19T12:09:32.038Z,34.40
2018-03-19T12:12:00.228Z,34.70
2018-03-19T12:14:28.538Z,34.50
2018-03-19T12:16:55.967Z,34.50
2018-03-19T12:19:23.381Z,34.20
2018-03-19T12:21:50.917Z,34.30
2018-03-19T12:24:18.360Z,34.20
2018-03-19T12:26:45.778Z,34.40
2018-03-19T12:29:13.290Z,34.30
2018-03-19T12:31:40.772Z,34.40
2018-03-19T12:34:08.132Z,34.40
2018-03-19T12:36:35.749Z,33.90
2018-03-19T12:39:03.171Z,34.00
2018-03-19T12:41:31.481Z,33.60
2018-03-19T12:43:58.900Z,33.60
2018-03-19T12:46:27.088Z,34.00
2018-03-19T12:48:54.512Z,34.00
2018-03-19T12:51:22.031Z,33.80
2018-03-19T12:53:49.444Z,33.40
2018-03-19T12:56:17.658Z,34.10
2018-03-19T12:58:45.120Z,34.10
2018-03-19T13:01:12.589Z,33.80
2018-03-19T13:03:40.017Z,34.00
2018-03-19T13:06:07.450Z,33.80
2018-03-19T13:08:35.633Z,34.20
2018-03-19T13:11:03.828Z,34.30
2018-03-19T13:13:31.271Z,34.30
2018-03-19T13:15:59.461Z,34.50
2018-03-19T13:18:26.883Z,34.50
2018-03-19T13:20:55.080Z,34.30
2018-03-19T13:23:22.556Z,34.30
2018-03-19T13:25:50.012Z,34.10
2018-03-19T13:28:17.432Z,34.10
2018-03-19T13:30:45.621Z,33.80
2018-03-19T13:33:13.099Z,33.60
2018-03-19T13:35:40.566Z,33.60
2018-03-19T13:38:07.984Z,33.40
2018-03-19T13:40:36.199Z,33.60
2018-03-19T13:43:03.647Z,33.60
2018-03-19T13:45:31.068Z,33.50
2018-03-19T13:47:59.312Z,33.60
2018-03-19T13:50:26.745Z,32.90
2018-03-19T13:52:54.172Z,32.80
2018-03-19T13:55:21.594Z,32.90
2018-03-19T13:57:49.826Z,32.50
2018-03-19T14:00:17.284Z,32.50
2018-03-19T14:02:44.704Z,32.30
2018-03-19T14:05:12.914Z,31.70
2018-03-19T14:07:41.297Z,31.60
2018-03-19T14:10:08.717Z,31.90
2018-03-19T14:12:36.918Z,31.60
2018-03-19T14:15:04.345Z,31.60
2018-03-19T14:17:32.537Z,31.90
2018-03-19T14:19:59.977Z,31.90
2018-03-19T14:22:28.209Z,31.80
2018-03-19T14:24:55.592Z,31.70
2018-03-19T14:27:23.100Z,31.40
2018-03-19T14:29:50.537Z,30.60
2018-03-19T14:32:17.964Z,30.50
2018-03-19T14:34:46.185Z,31.70
2018-03-19T14:37:13.653Z,30.90
2018-03-19T14:39:41.069Z,30.70
2018-03-19T14:42:09.381Z,29.40
2018-03-19T14:44:36.804Z,29.40
2018-03-19T14:47:04.231Z,29.00
2018-03-19T14:49:33.180Z,29.40
2018-03-19T14:52:00.597Z,29.40
2018-03-19T14:54:28.827Z,28.80
2018-03-19T14:56:56.295Z,28.80
2018-03-19T14:59:24.454Z,28.10
2018-03-19T15:01:51.916Z,28.10
2018-03-19T15:04:19.368Z,28.30
2018-03-19T15:06:46.847Z,28.10
2018-03-19T15:09:14.266Z,27.80
2018-03-19T15:11:41.712Z,27.60
2018-03-19T15:14:09.190Z,27.10
2018-03-19T15:16:36.749Z,27.20
2018-03-19T15:19:04.206Z,27.10
2018-03-19T15:21:31.609Z,27.30
2018-03-19T15:23:59.029Z,27.30
2018-03-19T15:26:26.470Z,26.80
2018-03-19T15:28:53.961Z,26.20
2018-03-19T15:31:21.405Z,25.50
2018-03-19T15:33:48.853Z,25.80
2018-03-19T15:36:16.312Z,25.60
2018-03-19T15:38:43.783Z,25.60
2018-03-19T15:41:11.334Z,25.20
2018-03-19T15:43:38.785Z,25.10
2018-03-19T15:46:06.246Z,24.60
2018-03-19T15:48:33.707Z,24.70
2018-03-19T15:51:01.158Z,24.70
2018-03-19T15:53:28.607Z,24.50
2018-03-19T15:55:56.026Z,24.00
2018-03-19T15:58:24.212Z,23.60
2018-03-19T16:00:51.710Z,23.50
2018-03-19T16:03:19.256Z,23.50
2018-03-19T16:05:46.737Z,23.00
2018-03-19T16:08:14.186Z,23.00
2018-03-19T16:10:41.633Z,22.90
2018-03-19T16:13:09.090Z,22.60
2018-03-19T16:15:36.544Z,22.60
2018-03-19T16:18:03.981Z,22.20
2018-03-19T16:20:31.461Z,22.80
2018-03-19T16:22:58.892Z,22.10
2018-03-19T16:25:26.391Z,22.00
2018-03-19T16:27:53.801Z,20.90
2018-03-19T16:30:21.224Z,20.60
2018-03-19T16:32:48.708Z,20.60
2018-03-19T16:35:16.912Z,20.60
2018-03-19T16:37:44.330Z,20.50
2018-03-19T16:40:12.564Z,21.10
2018-03-19T16:42:39.985Z,21.00
2018-03-19T16:45:07.476Z,21.10
2018-03-19T16:47:34.926Z,20.90
2018-03-19T16:50:02.433Z,21.30
2018-03-19T16:52:29.836Z,21.50
2018-03-19T16:54:57.293Z,21.40
2018-03-19T16:57:24.723Z,21.70
2018-03-19T16:59:52.182Z,21.70
2018-03-19T17:02:19.687Z,21.80
2018-03-19T17:04:47.137Z,22.10
2018-03-19T17:07:14.589Z,21.80
2018-03-19T17:09:42.075Z,21.80
2018-03-19T17:12:09.604Z,21.60
2018-03-19T17:14:37.065Z,21.70
2018-03-19T17:17:04.510Z,21.80
2018-03-19T17:19:32.004Z,22.10
2018-03-19T17:21:59.450Z,22.50
2018-03-19T17:24:27.020Z,23.00
2018-03-19T17:26:54.539Z,23.70
2018-03-19T17:29:21.980Z,23.30
2018-03-19T17:31:49.495Z,23.40
2018-03-19T17:34:16.877Z,23.70
2018-03-19T17:36:45.103Z,24.20
2018-03-19T17:39:12.677Z,24.10
2018-03-19T17:41:40.257Z,24.60
2018-03-19T17:44:07.679Z,24.90
2018-03-19T17:46:35.142Z,24.70
2018-03-19T17:49:02.582Z,24.50
2018-03-19T17:51:30.048Z,24.60
2018-03-19T17:53:57.517Z,24.50
2018-03-19T17:56:24.962Z,24.70
2018-03-19T17:58:52.395Z,24.90
2018-03-19T18:01:19.821Z,25.00
2018-03-19T18:03:48.018Z,25.50
2018-03-19T18:06:15.441Z,25.50
2018-03-19T18:08:42.904Z,25.60
2018-03-19T18:11:10.323Z,25.90
2018-03-19T18:13:37.748Z,25.90
2018-03-19T18:16:05.194Z,26.10
2018-03-19T18:18:33.514Z,26.60
2018-03-19T18:21:00.931Z,26.60
2018-03-19T18:23:29.235Z,27.00
2018-03-19T18:25:56.668Z,27.00
2018-03-19T18:28:24.084Z,27.30
2018-03-19T18:30:51.541Z,27.60
2018-03-19T18:33:18.961Z,29.00
2018-03-19T18:35:46.390Z,28.60
2018-03-19T18:38:13.833Z,28.80
2018-03-19T18:40:42.045Z,29.00
2018-03-19T18:43:09.472Z,29.00
2018-03-19T18:45:36.969Z,29.10
2018-03-19T18:48:04.388Z,29.30
2018-03-19T18:50:31.917Z,29.40
2018-03-19T18:52:59.349Z,29.60
2018-03-19T18:55:26.783Z,29.90
2018-03-19T18:57:54.271Z,29.90
2018-03-19T19:00:21.728Z,30.00
2018-03-19T19:02:49.233Z,30.00
2018-03-19T19:05:16.635Z,30.10
2018-03-19T19:07:44.072Z,30.90
2018-03-19T19:10:11.498Z,30.30
2018-03-19T19:12:39.694Z,30.80
2018-03-19T19:15:07.133Z,30.80
2018-03-19T19:17:34.640Z,30.90
2018-03-19T19:20:02.070Z,31.10
2018-03-19T19:22:29.545Z,31.30
2018-03-19T19:24:56.969Z,31.40
2018-03-19T19:27:24.392Z,31.50
2018-03-19T19:29:51.921Z,31.80
2018-03-19T19:32:19.357Z,32.20
2018-03-19T19:34:46.756Z,32.40
2018-03-19T19:37:14.193Z,32.90
2018-03-19T19:39:41.628Z,33.60
2018-03-19T19:42:09.052Z,34.60
2018-03-19T19:44:37.256Z,37.00
2018-03-19T19:47:04.681Z,37.00
2018-03-19T19:49:32.893Z,39.60
2018-03-19T19:52:00.361Z,39.60
2018-03-19T19:54:27.780Z,40.40
2018-03-19T19:56:55.203Z,41.10
2018-03-19T19:59:22.739Z,41.90
2018-03-19T20:01:50.190Z,42.90
2018-03-19T20:04:17.637Z,43.40
2018-03-19T20:06:45.086Z,43.90
2018-03-19T20:09:12.561Z,44.30
2018-03-19T20:11:40.004Z,44.80
2018-03-19T20:14:07.449Z,45.10
2018-03-19T20:16:34.865Z,45.50
2018-03-19T20:19:02.385Z,45.80
2018-03-19T20:21:29.830Z,46.90
2018-03-19T20:23:57.335Z,46.40
2018-03-19T20:26:24.746Z,46.60
2018-03-19T20:28:52.188Z,46.80
2018-03-19T20:31:19.670Z,47.00
2018-03-19T20:33:47.097Z,47.20
2018-03-19T20:36:14.532Z,47.30
2018-03-19T20:38:42.728Z,48.20
2018-03-19T20:41:10.156Z,47.70
2018-03-19T20:43:37.589Z,47.80
2018-03-19T20:46:05.016Z,47.90
2018-03-19T20:48:32.440Z,48.10
2018-03-19T20:51:00.648Z,48.80
2018-03-19T20:53:28.076Z,48.70
2018-03-19T20:55:56.292Z,49.30
2018-03-19T20:58:23.736Z,49.30
2018-03-19T21:00:51.209Z,50.20
2018-03-19T21:03:18.634Z,49.80
2018-03-19T21:05:46.120Z,50.00
2018-03-19T21:08:13.672Z,50.10
2018-03-19T21:10:41.100Z,50.10
2018-03-19T21:13:08.553Z,50.20
2018-03-19T21:15:36.757Z,50.70
2018-03-19T21:18:04.184Z,50.70
2018-03-19T21:20:32.397Z,50.70
2018-03-19T21:22:59.852Z,50.70
2018-03-19T21:25:27.292Z,50.80
2018-03-19T21:27:54.736Z,51.10
2018-03-19T21:30:22.171Z,51.30
2018-03-19T21:32:50.364Z,51.80
2018-03-19T21:35:17.858Z,51.80
2018-03-19T21:37:45.302Z,51.90
2018-03-19T21:40:12.734Z,52.30
2018-03-19T21:42:40.945Z,52.30
2018-03-19T21:45:08.404Z,52.30
2018-03-19T21:47:35.956Z,52.40
2018-03-19T21:50:03.433Z,52.60
2018-03-19T21:52:30.869Z,52.60
2018-03-19T21:54:58.322Z,52.70
2018-03-19T21:57:25.784Z,52.90
2018-03-19T21:59:53.265Z,52.80
2018-03-19T22:02:20.699Z,52.80
2018-03-19T22:04:48.132Z,52.80
2018-03-19T22:07:15.593Z,52.80
2018-03-19T22:09:43.024Z,52.90
2018-03-19T22:12:11.245Z,52.90
2018-03-19T22:14:38.711Z,52.90
2018-03-19T22:17:06.137Z,52.80
2018-03-19T22:19:33.580Z,52.80
2018-03-19T22:22:01.797Z,52.90
2018-03-19T22:24:29.224Z,52.90
2018-03-19T22:26:56.712Z,52.90
2018-03-19T22:29:24.165Z,52.90
2018-03-19T22:31:51.593Z,53.10
2018-03-19T22:34:19.049Z,53.20
2018-03-19T22:36:46.483Z,53.20
2018-03-19T22:39:13.942Z,53.40
2018-03-19T22:41:41.388Z,53.90
2018-03-19T22:44:08.822Z,53.20
2018-03-19T22:46:36.257Z,53.20
2018-03-19T22:49:03.781Z,53.20
2018-03-19T22:51:31.207Z,53.20
2018-03-19T22:53:58.629Z,53.20
2018-03-19T22:56:26.078Z,53.10
2018-03-19T22:58:53.488Z,53.20
2018-03-19T23:01:21.016Z,53.20
2018-03-19T23:03:48.470Z,53.30
2018-03-19T23:06:15.896Z,53.30
2018-03-19T23:08:43.335Z,53.40
2018-03-19T23:11:10.769Z,53.50
2018-03-19T23:13:38.213Z,53.60
2018-03-19T23:16:05.643Z,53.50
2018-03-19T23:18:33.108Z,53.60
2018-03-19T23:21:00.544Z,53.80
2018-03-19T23:23:27.974Z,53.90
2018-03-19T23:25:56.168Z,54.00
2018-03-19T23:28:23.602Z,54.00
2018-03-19T23:30:51.792Z,54.20
2018-03-19T23:33:20.001Z,54.30
2018-03-19T23:35:47.457Z,54.30
2018-03-19T23:38:15.000Z,54.40
2018-03-19T23:40:43.196Z,54.40
2018-03-19T23:43:10.620Z,54.40
2018-03-19T23:45:38.053Z,54.40
2018-03-19T23:48:05.498Z,54.50
2018-03-19T23:50:32.978Z,54.50
2018-03-19T23:53:00.473Z,54.60
2018-03-19T23:55:27.868Z,54.90
2018-03-19T23:57:55.355Z,55.50
